createdAt,value
2023-04-09T00:01:40.286Z,4.82
2023-04-09T00:04:07.164Z,5.72
2023-04-09T00:06:33.900Z,7.80
2023-04-09T00:09:00.804Z,5.50
2023-04-09T00:11:27.425Z,3.25
2023-04-09T00:13:54.053Z,4.60
2023-04-09T00:16:20.788Z,2.83
2023-04-09T00:18:47.541Z,4.45
2023-04-09T00:21:16.234Z,3.55
2023-04-09T00:23:44.185Z,5.63
2023-04-09T00:26:11.074Z,3.40
2023-04-09T00:28:37.753Z,5.47
2023-04-09T00:31:04.496Z,7.40
2023-04-09T00:33:31.451Z,8.55
2023-04-09T00:35:58.244Z,8.15
2023-04-09T00:38:24.957Z,3.50
2023-04-09T00:40:52.114Z,4.90
2023-04-09T00:43:18.782Z,7.25
2023-04-09T00:45:46.163Z,5.05
2023-04-09T00:48:14.270Z,8.07
2023-04-09T00:50:42.313Z,12.85
2023-04-09T00:53:10.753Z,6.25
2023-04-09T00:55:40.461Z,5.70
2023-04-09T00:58:07.659Z,8.77
2023-04-09T01:00:34.808Z,7.78
2023-04-09T01:03:02.400Z,5.15
2023-04-09T01:05:41.417Z,9.35
2023-04-09T01:08:56.062Z,8.05
2023-04-09T01:11:40.845Z,6.57
2023-04-09T01:14:30.021Z,9.35
2023-04-09T01:17:03.530Z,6.32
2023-04-09T01:19:32.954Z,4.85
2023-04-09T01:22:00.657Z,7.15
2023-04-09T01:24:51.954Z,7.45
2023-04-09T01:27:18.993Z,13.88
2023-04-09T01:29:47.987Z,7.18
2023-04-09T01:32:19.225Z,6.65
2023-04-09T01:34:47.661Z,5.68
2023-04-09T01:37:16.916Z,11.15
2023-04-09T01:39:44.226Z,6.38
2023-04-09T01:42:12.510Z,7.13
2023-04-09T01:44:41.600Z,11.82
2023-04-09T01:47:09.710Z,12.57
2023-04-09T01:49:38.552Z,13.02
2023-04-09T01:52:05.606Z,14.27
2023-04-09T01:54:33.072Z,10.05
2023-04-09T01:56:59.813Z,5.97
2023-04-09T01:59:26.444Z,13.10
2023-04-09T02:02:05.316Z,8.38
2023-04-09T02:04:46.635Z,11.95
2023-04-09T02:07:28.414Z,8.23
2023-04-09T02:09:55.973Z,8.85
2023-04-09T02:12:25.269Z,11.27
2023-04-09T02:14:54.776Z,7.35
2023-04-09T02:17:21.649Z,8.70
2023-04-09T02:19:48.801Z,10.65
2023-04-09T02:22:16.897Z,8.52
2023-04-09T02:24:43.974Z,9.88
2023-04-09T02:27:10.638Z,6.97
2023-04-09T02:29:37.303Z,10.13
2023-04-09T02:32:04.090Z,14.10
2023-04-09T02:34:31.168Z,18.15
2023-04-09T02:36:57.780Z,11.25
2023-04-09T02:39:24.450Z,9.60
2023-04-09T02:41:51.098Z,15.25
2023-04-09T02:44:17.737Z,13.25
2023-04-09T02:46:46.484Z,8.65
2023-04-09T02:49:13.153Z,12.32
2023-04-09T02:51:39.848Z,11.40
2023-04-09T02:54:06.606Z,5.55
2023-04-09T02:56:33.264Z,7.30
2023-04-09T02:58:59.914Z,6.53
2023-04-09T03:01:26.596Z,16.33
2023-04-09T03:03:53.383Z,9.55
2023-04-09T03:06:20.166Z,13.02
2023-04-09T03:08:46.799Z,8.23
2023-04-09T03:11:13.553Z,4.68
2023-04-09T03:13:40.173Z,9.60
2023-04-09T03:16:07.343Z,7.10
2023-04-09T03:18:34.128Z,7.40
2023-04-09T03:21:05.494Z,9.05
2023-04-09T03:23:35.010Z,8.93
2023-04-09T03:26:06.256Z,10.80
2023-04-09T03:28:33.141Z,4.88
2023-04-09T03:30:59.793Z,7.70
2023-04-09T03:33:26.577Z,16.25
2023-04-09T03:35:53.316Z,8.60
2023-04-09T03:38:20.164Z,9.57
2023-04-09T03:40:46.926Z,10.52
2023-04-09T03:43:13.635Z,11.00
2023-04-09T03:45:40.365Z,9.20
2023-04-09T03:48:08.091Z,10.77
2023-04-09T03:50:41.682Z,8.95
2023-04-09T03:53:08.395Z,7.10
2023-04-09T03:55:35.212Z,11.70
2023-04-09T03:58:01.987Z,12.05
2023-04-09T04:00:28.810Z,8.88
2023-04-09T04:02:55.755Z,9.40
2023-04-09T04:05:26.341Z,13.65
2023-04-09T04:07:53.772Z,16.58
2023-04-09T04:10:20.681Z,8.75
2023-04-09T04:12:47.551Z,19.02
2023-04-09T04:15:14.449Z,18.65
2023-04-09T04:17:41.168Z,22.60
2023-04-09T04:20:08.494Z,21.30
2023-04-09T04:22:35.836Z,17.00
2023-04-09T04:25:03.664Z,22.50
2023-04-09T04:27:30.370Z,22.63
2023-04-09T04:29:59.005Z,18.05
2023-04-09T04:32:26.187Z,13.13
2023-04-09T04:34:52.888Z,15.65
2023-04-09T04:37:19.690Z,11.82
2023-04-09T04:39:46.403Z,14.27
2023-04-09T04:42:13.045Z,11.38
2023-04-09T04:44:39.632Z,15.35
2023-04-09T04:47:06.278Z,16.60
2023-04-09T04:49:32.924Z,14.50
2023-04-09T04:51:59.547Z,16.13
2023-04-09T04:54:26.211Z,18.60
2023-04-09T04:56:52.945Z,14.70
2023-04-09T04:59:19.567Z,17.70
2023-04-09T05:01:46.291Z,7.45
2023-04-09T05:04:12.968Z,13.10
2023-04-09T05:06:39.790Z,20.00
2023-04-09T05:09:06.437Z,7.05
2023-04-09T05:11:33.042Z,21.80
2023-04-09T05:13:59.736Z,10.15
2023-04-09T05:16:27.164Z,11.18
2023-04-09T05:18:54.165Z,13.93
2023-04-09T05:21:21.115Z,14.68
2023-04-09T05:23:47.811Z,14.65
2023-04-09T05:26:14.460Z,12.88
2023-04-09T05:28:41.515Z,11.50
2023-04-09T05:31:13.135Z,14.25
2023-04-09T05:33:40.351Z,11.82
2023-04-09T05:36:07.879Z,11.85
2023-04-09T05:38:35.002Z,14.88
2023-04-09T05:41:01.650Z,17.20
2023-04-09T05:43:28.300Z,14.95
2023-04-09T05:45:55.029Z,16.58
2023-04-09T05:48:23.776Z,13.57
2023-04-09T05:50:55.181Z,10.93
2023-04-09T05:53:22.935Z,14.68
2023-04-09T05:55:49.697Z,16.48
2023-04-09T05:58:16.636Z,14.63
2023-04-09T06:00:43.256Z,21.52
2023-04-09T06:03:10.178Z,13.98
2023-04-09T06:05:36.944Z,22.10
2023-04-09T06:08:03.712Z,16.92
2023-04-09T06:10:32.858Z,17.45
2023-04-09T06:12:59.517Z,11.07
2023-04-09T06:15:26.388Z,14.00
2023-04-09T06:17:53.073Z,17.50
2023-04-09T06:20:19.827Z,17.10
2023-04-09T06:22:46.549Z,24.60
2023-04-09T06:25:13.217Z,17.50
2023-04-09T06:27:39.875Z,12.25
2023-04-09T06:30:07.227Z,16.50
2023-04-09T06:32:43.390Z,14.10
2023-04-09T06:35:18.862Z,11.77
2023-04-09T06:37:45.583Z,14.13
2023-04-09T06:40:12.816Z,13.70
2023-04-09T06:42:40.455Z,12.13
2023-04-09T06:45:08.773Z,12.73
2023-04-09T06:47:36.388Z,15.93
2023-04-09T06:50:03.715Z,18.23
2023-04-09T06:52:30.496Z,11.40
2023-04-09T06:54:57.184Z,15.23
2023-04-09T06:57:23.940Z,12.15
2023-04-09T06:59:50.571Z,16.60
2023-04-09T07:02:17.553Z,17.48
2023-04-09T07:04:44.434Z,17.90
2023-04-09T07:07:11.195Z,20.88
2023-04-09T07:09:37.816Z,17.70
2023-04-09T07:12:04.513Z,19.83
2023-04-09T07:14:31.219Z,18.48
2023-04-09T07:16:57.845Z,15.70
2023-04-09T07:19:24.520Z,13.40
2023-04-09T07:21:51.650Z,18.48
2023-04-09T07:24:18.348Z,11.75
2023-04-09T07:26:45.080Z,14.63
2023-04-09T07:29:12.082Z,15.77
2023-04-09T07:31:38.848Z,10.82
2023-04-09T07:34:06.422Z,11.07
2023-04-09T07:36:33.133Z,16.25
2023-04-09T07:38:59.824Z,15.18
2023-04-09T07:41:26.523Z,18.52
2023-04-09T07:43:53.162Z,17.50
2023-04-09T07:46:21.711Z,15.43
2023-04-09T07:48:50.068Z,17.75
2023-04-09T07:51:17.089Z,17.30
2023-04-09T07:53:43.795Z,17.83
2023-04-09T07:56:10.495Z,23.30
2023-04-09T07:58:38.199Z,15.63
2023-04-09T08:01:05.410Z,19.25
2023-04-09T08:03:32.542Z,19.45
2023-04-09T08:05:59.342Z,20.08
2023-04-09T08:08:26.118Z,14.70
2023-04-09T08:10:52.788Z,19.77
2023-04-09T08:13:20.576Z,14.45
2023-04-09T08:15:47.296Z,16.85
2023-04-09T08:18:14.309Z,12.75
2023-04-09T08:20:45.324Z,19.63
2023-04-09T08:23:12.634Z,11.30
2023-04-09T08:25:41.038Z,18.42
2023-04-09T08:28:08.420Z,11.48
2023-04-09T08:30:35.147Z,12.02
2023-04-09T08:33:02.625Z,18.60
2023-04-09T08:35:32.616Z,10.52
2023-04-09T08:37:59.968Z,15.70
2023-04-09T08:40:26.636Z,18.88
2023-04-09T08:42:59.510Z,13.57
2023-04-09T08:45:26.236Z,15.98
2023-04-09T08:47:53.226Z,12.35
2023-04-09T08:50:20.220Z,13.65
2023-04-09T08:52:50.416Z,10.07
2023-04-09T08:55:17.263Z,14.93
2023-04-09T08:57:43.979Z,25.25
2023-04-09T09:00:11.381Z,12.75
2023-04-09T09:02:40.176Z,14.57
2023-04-09T09:05:07.435Z,17.58
2023-04-09T09:07:34.408Z,13.13
2023-04-09T09:10:04.962Z,10.25
2023-04-09T09:12:38.677Z,14.35
2023-04-09T09:15:24.376Z,8.15
2023-04-09T09:17:58.863Z,10.98
2023-04-09T09:20:27.216Z,15.02
2023-04-09T09:22:55.911Z,12.85
2023-04-09T09:25:24.849Z,13.38
2023-04-09T09:27:52.163Z,11.38
2023-04-09T09:30:27.517Z,12.73
2023-04-09T09:33:04.533Z,12.07
2023-04-09T09:35:31.250Z,11.40
2023-04-09T09:38:03.295Z,18.70
2023-04-09T09:40:30.183Z,13.80
2023-04-09T09:42:57.960Z,9.95
2023-04-09T09:45:26.174Z,17.83
2023-04-09T09:47:54.213Z,13.60
2023-04-09T09:50:25.281Z,11.73
2023-04-09T09:53:04.750Z,13.68
2023-04-09T09:55:33.348Z,16.40
2023-04-09T09:58:04.065Z,15.88
2023-04-09T10:00:33.104Z,15.30
2023-04-09T10:03:08.525Z,15.23
2023-04-09T10:05:36.972Z,12.25
2023-04-09T10:08:04.607Z,13.73
2023-04-09T10:10:31.802Z,10.73
2023-04-09T10:12:59.367Z,12.05
2023-04-09T10:15:29.060Z,14.18
2023-04-09T10:17:56.783Z,20.88
2023-04-09T10:20:29.159Z,16.05
2023-04-09T10:22:57.373Z,12.68
2023-04-09T10:25:24.185Z,13.00
2023-04-09T10:28:02.708Z,19.83
2023-04-09T10:30:36.699Z,22.00
2023-04-09T10:33:29.682Z,14.07
2023-04-09T10:36:01.619Z,17.52
2023-04-09T10:38:35.939Z,29.38
2023-04-09T10:41:16.010Z,20.67
2023-04-09T10:43:43.648Z,17.25
2023-04-09T10:46:46.223Z,14.77
2023-04-09T10:52:03.356Z,17.13
2023-04-09T10:54:33.312Z,21.77
2023-04-09T10:57:10.877Z,20.60
2023-04-09T10:59:42.380Z,20.42
2023-04-09T11:02:29.714Z,15.70
2023-04-09T11:05:02.582Z,25.35
2023-04-09T11:07:32.527Z,19.13
2023-04-09T11:09:59.157Z,21.73
2023-04-09T11:12:25.871Z,17.98
2023-04-09T11:14:52.527Z,17.27
2023-04-09T11:17:19.935Z,30.08
2023-04-09T11:19:47.088Z,17.00
2023-04-09T11:22:13.755Z,25.63
2023-04-09T11:24:44.544Z,24.83
2023-04-09T11:27:11.196Z,27.80
2023-04-09T11:29:37.856Z,23.08
2023-04-09T11:32:05.348Z,21.63
2023-04-09T11:34:32.697Z,18.40
2023-04-09T11:37:02.191Z,26.02
2023-04-09T11:39:31.077Z,15.25
2023-04-09T11:41:57.957Z,15.68
2023-04-09T11:44:24.596Z,28.58
2023-04-09T11:46:52.106Z,16.23
2023-04-09T11:49:18.880Z,23.63
2023-04-09T11:51:45.703Z,18.02
2023-04-09T11:54:12.469Z,20.65
2023-04-09T11:56:39.142Z,14.35
2023-04-09T11:59:05.950Z,13.60
2023-04-09T12:01:33.586Z,15.10
2023-04-09T12:04:01.452Z,24.95
2023-04-09T12:06:28.691Z,20.17
2023-04-09T12:08:58.990Z,17.30
2023-04-09T12:11:29.984Z,13.93
2023-04-09T12:14:01.333Z,18.92
2023-04-09T12:16:31.192Z,25.67
2023-04-09T12:19:02.798Z,14.93
2023-04-09T12:21:56.186Z,13.40
2023-04-09T12:24:28.072Z,24.52
2023-04-09T12:26:56.544Z,20.95
2023-04-09T12:29:23.469Z,18.85
2023-04-09T12:31:50.244Z,18.58
2023-04-09T12:34:17.191Z,18.33
2023-04-09T12:36:43.884Z,19.15
2023-04-09T12:39:10.720Z,15.75
2023-04-09T12:41:37.833Z,17.92
2023-04-09T12:44:05.260Z,20.75
2023-04-09T12:46:32.792Z,13.63
2023-04-09T12:48:59.600Z,17.20
2023-04-09T12:51:26.331Z,14.38
2023-04-09T12:53:54.443Z,18.08
2023-04-09T12:56:21.378Z,20.40
2023-04-09T12:58:48.089Z,18.17
2023-04-09T13:01:14.841Z,18.83
2023-04-09T13:03:41.923Z,13.63
2023-04-09T13:06:08.855Z,18.30
2023-04-09T13:08:35.926Z,19.30
2023-04-09T13:11:02.926Z,14.45
2023-04-09T13:13:29.837Z,17.08
2023-04-09T13:15:56.498Z,13.35
2023-04-09T13:18:23.183Z,10.77
2023-04-09T13:20:49.853Z,13.70
2023-04-09T13:23:16.512Z,14.80
2023-04-09T13:25:43.525Z,10.50
2023-04-09T13:28:10.237Z,12.77
2023-04-09T13:30:36.949Z,10.15
2023-04-09T13:33:06.736Z,17.00
2023-04-09T13:35:33.493Z,13.70
2023-04-09T13:38:01.296Z,11.55
2023-04-09T13:40:27.973Z,12.93
2023-04-09T13:42:56.142Z,13.27
2023-04-09T13:45:24.018Z,11.57
2023-04-09T13:47:51.162Z,13.82
2023-04-09T13:50:18.073Z,14.48
2023-04-09T13:52:46.992Z,39.85
2023-04-09T13:55:14.148Z,27.08
2023-04-09T13:57:41.111Z,13.90
2023-04-09T14:00:08.554Z,18.63
2023-04-09T14:02:35.394Z,14.35
2023-04-09T14:05:04.061Z,16.92
2023-04-09T14:07:32.179Z,19.98
2023-04-09T14:09:58.822Z,23.83
2023-04-09T14:12:25.799Z,23.80
2023-04-09T14:14:52.419Z,29.23
2023-04-09T14:17:19.093Z,15.40
2023-04-09T14:19:45.795Z,23.48
2023-04-09T14:22:12.653Z,18.52
2023-04-09T14:24:40.265Z,20.33
2023-04-09T14:27:07.828Z,15.30
2023-04-09T14:29:34.834Z,20.92
2023-04-09T14:32:01.552Z,15.45
2023-04-09T14:34:31.522Z,15.27
2023-04-09T14:36:58.266Z,18.63
2023-04-09T14:39:25.143Z,13.07
2023-04-09T14:41:52.361Z,19.10
2023-04-09T14:44:19.024Z,19.92
2023-04-09T14:46:45.840Z,12.95
2023-04-09T14:49:13.215Z,21.33
2023-04-09T14:51:39.968Z,14.75
2023-04-09T14:54:06.814Z,10.98
2023-04-09T14:56:33.529Z,14.32
2023-04-09T14:59:00.123Z,14.02
2023-04-09T15:01:28.212Z,9.70
2023-04-09T15:03:55.612Z,9.80
2023-04-09T15:06:22.700Z,11.30
2023-04-09T15:08:49.326Z,16.45
2023-04-09T15:11:17.218Z,9.73
2023-04-09T15:13:44.070Z,14.20
2023-04-09T15:16:11.553Z,8.95
2023-04-09T15:18:38.375Z,7.13
2023-04-09T15:21:05.534Z,7.30
2023-04-09T15:23:32.245Z,7.43
2023-04-09T15:25:59.100Z,11.45
2023-04-09T15:28:25.784Z,14.68
2023-04-09T15:30:54.668Z,10.75
2023-04-09T15:33:24.224Z,10.75
2023-04-09T15:35:51.000Z,9.07
2023-04-09T15:38:21.467Z,12.13
2023-04-09T15:40:48.114Z,12.43
2023-04-09T15:43:15.830Z,10.63
2023-04-09T15:45:42.666Z,12.55
2023-04-09T15:48:10.405Z,11.82
2023-04-09T15:50:37.076Z,16.13
2023-04-09T15:53:03.764Z,9.27
2023-04-09T15:55:30.840Z,8.10
2023-04-09T15:57:57.585Z,14.75
2023-04-09T16:00:24.388Z,12.38
2023-04-09T16:02:53.132Z,12.10
2023-04-09T16:05:19.829Z,13.77
2023-04-09T16:07:47.325Z,13.70
2023-04-09T16:10:15.051Z,24.02
2023-04-09T16:12:45.555Z,16.13
2023-04-09T16:15:12.209Z,25.38
2023-04-09T16:17:40.804Z,14.68
2023-04-09T16:20:08.876Z,21.10
2023-04-09T16:22:35.884Z,17.67
2023-04-09T16:25:02.562Z,12.20
2023-04-09T16:27:30.948Z,15.68
2023-04-09T16:29:58.642Z,21.90
2023-04-09T16:32:25.460Z,12.15
2023-04-09T16:34:52.876Z,12.82
2023-04-09T16:37:19.744Z,18.40
2023-04-09T16:39:46.406Z,14.55
2023-04-09T16:42:13.101Z,10.85
2023-04-09T16:44:40.284Z,15.75
2023-04-09T16:47:08.282Z,11.35
2023-04-09T16:49:35.041Z,15.52
2023-04-09T16:52:02.092Z,7.13
2023-04-09T16:54:29.564Z,11.05
2023-04-09T16:56:58.558Z,12.73
2023-04-09T16:59:25.412Z,11.82
2023-04-09T17:01:52.300Z,12.05
2023-04-09T17:04:19.716Z,10.43
2023-04-09T17:06:47.236Z,9.68
2023-04-09T17:09:14.026Z,11.80
2023-04-09T17:11:40.754Z,8.00
2023-04-09T17:14:07.428Z,5.47
2023-04-09T17:16:34.555Z,9.02
2023-04-09T17:19:01.721Z,6.68
2023-04-09T17:21:28.330Z,8.52
2023-04-09T17:23:54.963Z,5.05
2023-04-09T17:26:21.586Z,8.20
2023-04-09T17:28:48.185Z,10.43
2023-04-09T17:31:16.128Z,4.75
2023-04-09T17:33:48.028Z,7.45
2023-04-09T17:36:17.367Z,7.18
2023-04-09T17:38:44.088Z,6.13
2023-04-09T17:41:10.824Z,7.43
2023-04-09T17:43:37.732Z,19.73
2023-04-09T17:46:07.446Z,10.90
2023-04-09T17:48:36.517Z,10.38
2023-04-09T17:51:03.197Z,64.20
2023-04-09T17:53:29.858Z,78.68
2023-04-09T17:55:56.600Z,84.85
2023-04-09T17:58:24.916Z,125.68
2023-04-09T18:00:53.404Z,106.97
2023-04-09T18:03:20.418Z,59.75
2023-04-09T18:05:47.735Z,52.67
2023-04-09T18:08:14.425Z,57.90
2023-04-09T18:10:41.230Z,53.15
2023-04-09T18:13:07.985Z,39.97
2023-04-09T18:15:34.658Z,23.13
2023-04-09T18:18:01.391Z,19.33
2023-04-09T18:20:28.309Z,18.50
2023-04-09T18:22:55.762Z,13.48
2023-04-09T18:25:23.352Z,19.95
2023-04-09T18:27:50.568Z,12.38
2023-04-09T18:30:17.421Z,10.52
2023-04-09T18:32:44.432Z,9.27
2023-04-09T18:35:11.179Z,7.60
2023-04-09T18:37:38.347Z,8.65
2023-04-09T18:40:06.897Z,8.07
2023-04-09T18:42:33.501Z,8.32
2023-04-09T18:45:00.158Z,6.50
2023-04-09T18:47:27.006Z,6.60
2023-04-09T18:49:54.309Z,4.47
2023-04-09T18:52:21.099Z,2.97
2023-04-09T18:54:48.418Z,6.35
2023-04-09T18:57:15.534Z,6.60
2023-04-09T18:59:45.436Z,6.57
2023-04-09T19:02:12.251Z,3.67
2023-04-09T19:04:40.155Z,6.40
2023-04-09T19:07:07.170Z,4.07
2023-04-09T19:09:34.685Z,8.02
2023-04-09T19:12:02.083Z,6.63
2023-04-09T19:14:28.812Z,6.90
2023-04-09T19:16:55.922Z,4.70
2023-04-09T19:19:23.592Z,6.82
2023-04-09T19:21:50.673Z,4.40
2023-04-09T19:24:17.332Z,8.68
2023-04-09T19:26:43.963Z,6.40
2023-04-09T19:29:10.858Z,7.38
2023-04-09T19:31:41.517Z,4.38
2023-04-09T19:34:08.244Z,7.53
2023-04-09T19:36:35.088Z,6.50
2023-04-09T19:39:01.774Z,4.70
2023-04-09T19:41:28.539Z,4.68
2023-04-09T19:43:55.304Z,7.03
2023-04-09T19:46:22.012Z,12.25
2023-04-09T19:48:48.696Z,5.25
2023-04-09T19:51:20.080Z,5.78
2023-04-09T19:53:48.014Z,5.45
2023-04-09T19:56:15.138Z,6.18
2023-04-09T19:58:43.679Z,2.85
2023-04-09T20:01:10.708Z,6.22
2023-04-09T20:03:37.561Z,7.20
2023-04-09T20:06:09.939Z,8.27
2023-04-09T20:08:37.849Z,5.72
2023-04-09T20:11:05.127Z,5.65
2023-04-09T20:13:31.911Z,6.40
2023-04-09T20:15:58.603Z,5.03
2023-04-09T20:18:25.444Z,6.15
2023-04-09T20:20:53.092Z,4.40
2023-04-09T20:23:19.845Z,11.30
2023-04-09T20:25:46.713Z,7.85
2023-04-09T20:28:13.398Z,5.53
2023-04-09T20:30:40.096Z,11.75
2023-04-09T20:33:07.067Z,5.93
2023-04-09T20:35:36.271Z,5.28
2023-04-09T20:38:03.179Z,5.00
2023-04-09T20:40:32.020Z,7.22
2023-04-09T20:42:59.357Z,6.10
2023-04-09T20:45:26.250Z,6.82
2023-04-09T20:47:53.434Z,6.45
2023-04-09T20:50:20.102Z,6.53
2023-04-09T20:52:47.583Z,6.68
2023-04-09T20:55:15.008Z,4.78
2023-04-09T20:57:41.679Z,8.00
2023-04-09T21:00:08.999Z,11.35
2023-04-09T21:02:35.931Z,6.38
2023-04-09T21:05:11.836Z,6.18
2023-04-09T21:07:46.302Z,5.85
2023-04-09T21:10:13.332Z,13.98
2023-04-09T21:12:40.389Z,5.63
2023-04-09T21:15:07.707Z,12.82
2023-04-09T21:17:34.517Z,11.15
2023-04-09T21:20:01.342Z,6.05
2023-04-09T21:22:28.062Z,5.40
2023-04-09T21:24:56.506Z,12.55
2023-04-09T21:27:24.318Z,6.28
2023-04-09T21:29:51.038Z,6.57
2023-04-09T21:32:17.886Z,5.35
2023-04-09T21:34:45.497Z,5.40
2023-04-09T21:37:12.360Z,9.35
2023-04-09T21:39:39.067Z,7.18
2023-04-09T21:42:08.840Z,3.72
2023-04-09T21:44:35.632Z,3.63
2023-04-09T21:47:07.500Z,8.77
2023-04-09T21:49:39.066Z,8.02
2023-04-09T21:52:09.074Z,4.45
2023-04-09T21:54:36.116Z,3.58
2023-04-09T21:57:02.895Z,3.70
2023-04-09T21:59:29.500Z,3.88
2023-04-09T22:01:56.429Z,5.35
2023-04-09T22:04:23.167Z,7.32
2023-04-09T22:06:50.385Z,4.35
2023-04-09T22:09:17.106Z,2.60
2023-04-09T22:11:43.875Z,3.70
2023-04-09T22:14:11.330Z,2.50
2023-04-09T22:16:38.156Z,4.70
2023-04-09T22:19:04.900Z,1.75
2023-04-09T22:21:31.705Z,1.80
2023-04-09T22:23:58.420Z,1.65
2023-04-09T22:26:25.134Z,4.97
2023-04-09T22:28:52.481Z,4.32
2023-04-09T22:31:20.031Z,0.90
2023-04-09T22:33:46.962Z,0.80
2023-04-09T22:36:13.719Z,1.80
2023-04-09T22:38:40.475Z,1.88
2023-04-09T22:41:07.185Z,4.22
2023-04-09T22:43:33.908Z,1.63
2023-04-09T22:46:01.565Z,4.25
2023-04-09T22:48:29.193Z,4.25
2023-04-09T22:50:57.782Z,2.25
2023-04-09T22:53:24.487Z,2.00
2023-04-09T22:55:51.682Z,1.50
2023-04-09T22:58:19.198Z,1.10
2023-04-09T23:00:47.239Z,1.05
2023-04-09T23:03:14.341Z,2.15
2023-04-09T23:05:41.932Z,1.15
2023-04-09T23:08:09.485Z,0.50
2023-04-09T23:10:36.306Z,0.50
2023-04-09T23:13:02.982Z,0.60
2023-04-09T23:15:29.731Z,1.15
2023-04-09T23:17:56.761Z,0.30
2023-04-09T23:20:23.740Z,0.52
2023-04-09T23:22:50.644Z,1.23
2023-04-09T23:25:17.658Z,1.63
2023-04-09T23:27:44.578Z,0.40
2023-04-09T23:30:16.610Z,0.85
2023-04-09T23:35:11.648Z,0.25
2023-04-09T23:37:42.660Z,0.40
2023-04-09T23:40:11.184Z,3.90
2023-04-09T23:42:38.049Z,0.52
2023-04-09T23:45:06.092Z,4.55
2023-04-09T23:47:34.781Z,3.03
2023-04-09T23:50:05.756Z,2.03
2023-04-09T23:52:37.764Z,4.28
2023-04-09T23:55:07.478Z,5.32
2023-04-09T23:57:35.367Z,4.25
